createdAt,value
2022-10-13T00:00:18.669Z,6.00
2022-10-13T00:01:18.741Z,6.10
2022-10-13T00:02:18.876Z,7.20
2022-10-13T00:03:18.637Z,6.20
2022-10-13T00:04:18.619Z,6.20
2022-10-13T00:05:18.586Z,5.90
2022-10-13T00:06:18.592Z,6.50
2022-10-13T00:07:18.581Z,6.50
2022-10-13T00:08:18.543Z,5.30
2022-10-13T00:09:18.523Z,6.10
2022-10-13T00:10:18.523Z,5.40
2022-10-13T00:11:18.503Z,6.00
2022-10-13T00:12:18.836Z,5.90
2022-10-13T00:13:18.474Z,6.30
2022-10-13T00:14:18.482Z,5.70
2022-10-13T00:15:18.472Z,6.20
2022-10-13T00:16:18.462Z,6.40
2022-10-13T00:17:18.428Z,6.10
2022-10-13T00:18:18.410Z,5.40
2022-10-13T00:19:18.410Z,6.80
2022-10-13T00:20:18.382Z,5.20
2022-10-13T00:21:18.373Z,6.00
2022-10-13T00:22:18.512Z,5.80
2022-10-13T00:23:18.360Z,5.60
2022-10-13T00:24:18.361Z,5.20
2022-10-13T00:25:18.350Z,5.80
2022-10-13T00:26:18.319Z,5.90
2022-10-13T00:27:18.319Z,5.50
2022-10-13T00:28:18.321Z,5.50
2022-10-13T00:29:18.269Z,5.20
2022-10-13T00:30:18.265Z,5.60
2022-10-13T00:31:18.249Z,6.20
2022-10-13T00:32:18.429Z,5.60
2022-10-13T00:33:18.230Z,6.10
2022-10-13T00:34:18.228Z,5.30
2022-10-13T00:35:18.228Z,5.80
2022-10-13T00:36:18.177Z,5.50
2022-10-13T00:37:18.178Z,6.00
2022-10-13T00:38:18.160Z,5.60
2022-10-13T00:39:18.138Z,5.20
2022-10-13T00:40:18.180Z,5.70
2022-10-13T00:41:18.115Z,5.40
2022-10-13T00:42:18.366Z,5.30
2022-10-13T00:43:18.098Z,5.60
2022-10-13T00:44:18.105Z,5.20
2022-10-13T00:45:18.092Z,5.60
2022-10-13T00:46:18.074Z,4.90
2022-10-13T00:47:18.026Z,5.40
2022-10-13T00:48:18.025Z,5.60
2022-10-13T00:49:18.046Z,5.50
2022-10-13T00:50:18.026Z,6.00
2022-10-13T00:51:17.984Z,5.50
2022-10-13T00:52:18.310Z,5.10
2022-10-13T00:53:17.996Z,5.60
2022-10-13T00:54:18.013Z,5.40
2022-10-13T00:55:17.966Z,5.70
2022-10-13T00:56:17.915Z,5.40
2022-10-13T00:57:17.926Z,5.40
2022-10-13T00:58:17.911Z,5.30
2022-10-13T00:59:17.904Z,4.90
2022-10-13T01:00:17.924Z,5.30
2022-10-13T01:01:17.894Z,5.70
2022-10-13T01:02:18.118Z,5.40
2022-10-13T01:03:17.863Z,5.60
2022-10-13T01:04:17.811Z,5.30
2022-10-13T01:05:17.838Z,6.00
2022-10-13T01:06:22.513Z,5.00
2022-10-13T01:07:18.783Z,5.50
2022-10-13T01:08:17.762Z,5.00
2022-10-13T01:09:17.750Z,5.60
2022-10-13T01:10:17.743Z,5.30
2022-10-13T01:11:17.733Z,5.20
2022-10-13T01:12:17.976Z,5.70
2022-10-13T01:13:17.700Z,5.00
2022-10-13T01:14:17.681Z,4.90
2022-10-13T01:15:17.713Z,5.10
2022-10-13T01:16:17.711Z,5.10
2022-10-13T01:17:17.650Z,5.60
2022-10-13T01:18:17.630Z,5.10
2022-10-13T01:19:17.650Z,5.00
2022-10-13T01:20:17.619Z,5.30
2022-10-13T01:21:17.593Z,4.80
2022-10-13T01:22:17.804Z,4.90
2022-10-13T01:23:17.569Z,5.00
2022-10-13T01:24:17.554Z,4.90
2022-10-13T01:25:17.559Z,5.40
2022-10-13T01:26:17.534Z,5.40
2022-10-13T01:27:17.510Z,5.30
2022-10-13T01:28:17.575Z,4.70
2022-10-13T01:29:17.497Z,5.00
2022-10-13T01:30:17.487Z,4.90
2022-10-13T01:31:17.498Z,5.40
2022-10-13T01:32:17.794Z,4.70
2022-10-13T01:33:17.437Z,4.60
2022-10-13T01:34:17.426Z,5.00
2022-10-13T01:35:17.426Z,4.90
2022-10-13T01:36:17.398Z,5.10
2022-10-13T01:37:17.397Z,4.80
2022-10-13T01:38:17.376Z,5.10
2022-10-13T01:39:17.376Z,4.80
2022-10-13T01:40:17.358Z,4.70
2022-10-13T01:41:17.326Z,5.00
2022-10-13T01:42:17.550Z,5.00
2022-10-13T01:43:17.315Z,4.90
2022-10-13T01:44:17.325Z,5.00
2022-10-13T01:45:17.305Z,5.10
2022-10-13T01:46:17.264Z,4.80
2022-10-13T01:47:17.265Z,4.80
2022-10-13T01:48:17.264Z,5.30
2022-10-13T01:49:17.236Z,4.60
2022-10-13T01:50:17.234Z,5.30
2022-10-13T01:51:17.234Z,4.80
2022-10-13T01:52:17.521Z,5.00
2022-10-13T01:53:17.184Z,4.50
2022-10-13T01:54:17.165Z,4.80
2022-10-13T01:55:17.205Z,4.90
2022-10-13T01:56:17.149Z,5.00
2022-10-13T01:57:17.161Z,5.20
2022-10-13T01:58:17.113Z,5.40
2022-10-13T01:59:17.093Z,5.30
2022-10-13T02:00:17.093Z,4.70
2022-10-13T02:01:17.081Z,5.10
2022-10-13T02:02:17.506Z,4.80
2022-10-13T02:03:17.044Z,4.60
2022-10-13T02:04:17.047Z,4.80
2022-10-13T02:05:17.031Z,4.60
2022-10-13T02:06:17.012Z,5.20
2022-10-13T02:07:17.011Z,4.70
2022-10-13T02:08:16.990Z,5.00
2022-10-13T02:09:16.984Z,5.10
2022-10-13T02:10:16.980Z,5.40
2022-10-13T02:11:17.910Z,5.10
2022-10-13T02:12:17.326Z,5.50
2022-10-13T02:13:16.919Z,5.40
2022-10-13T02:14:16.907Z,4.50
2022-10-13T02:15:16.907Z,4.70
2022-10-13T02:16:16.890Z,4.50
2022-10-13T02:17:16.899Z,5.30
2022-10-13T02:18:16.849Z,5.20
2022-10-13T02:19:16.847Z,5.00
2022-10-13T02:20:16.848Z,4.70
2022-10-13T02:21:16.819Z,5.20
2022-10-13T02:22:17.158Z,4.80
2022-10-13T02:23:16.789Z,4.90
2022-10-13T02:24:16.809Z,4.60
2022-10-13T02:25:16.789Z,5.20
2022-10-13T02:26:16.780Z,6.10
2022-10-13T02:27:16.738Z,4.50
2022-10-13T02:28:16.781Z,4.70
2022-10-13T02:29:16.726Z,4.90
2022-10-13T02:30:16.716Z,4.90
2022-10-13T02:31:16.695Z,5.00
2022-10-13T02:32:17.188Z,4.90
2022-10-13T02:33:16.708Z,4.70
2022-10-13T02:34:16.657Z,5.10
2022-10-13T02:35:16.648Z,4.50
2022-10-13T02:36:16.614Z,4.90
2022-10-13T02:37:16.635Z,4.90
2022-10-13T02:38:16.599Z,4.80
2022-10-13T02:39:16.584Z,5.20
2022-10-13T02:40:16.588Z,4.90
2022-10-13T02:41:16.574Z,4.60
2022-10-13T02:42:16.556Z,4.50
2022-10-13T02:43:16.558Z,4.90
2022-10-13T02:44:16.535Z,5.00
2022-10-13T02:45:16.514Z,5.70
2022-10-13T02:46:16.504Z,5.40
2022-10-13T02:47:16.482Z,5.30
2022-10-13T02:48:16.472Z,5.30
2022-10-13T02:49:16.464Z,5.60
2022-10-13T02:50:16.473Z,5.10
2022-10-13T02:51:16.443Z,5.00
2022-10-13T02:52:16.606Z,4.80
2022-10-13T02:53:16.432Z,4.70
2022-10-13T02:54:16.405Z,5.10
2022-10-13T02:55:16.395Z,4.10
2022-10-13T02:56:16.394Z,4.90
2022-10-13T02:57:16.352Z,4.80
2022-10-13T02:58:16.331Z,5.50
2022-10-13T02:59:16.321Z,5.30
2022-10-13T03:00:16.321Z,5.10
2022-10-13T03:01:16.315Z,4.80
2022-10-13T03:02:16.311Z,4.60
2022-10-13T03:03:16.324Z,5.00
2022-10-13T03:04:16.289Z,5.50
2022-10-13T03:05:16.270Z,4.90
2022-10-13T03:06:16.235Z,5.20
2022-10-13T03:07:16.227Z,5.40
2022-10-13T03:08:16.241Z,5.50
2022-10-13T03:09:16.214Z,4.90
2022-10-13T03:10:16.207Z,5.40
2022-10-13T03:11:16.179Z,5.10
2022-10-13T03:12:16.149Z,5.60
2022-10-13T03:13:16.147Z,4.90
2022-10-13T03:14:16.137Z,5.10
2022-10-13T03:15:16.143Z,4.80
2022-10-13T03:16:16.109Z,5.20
2022-10-13T03:17:16.095Z,5.10
2022-10-13T03:18:16.096Z,5.40
2022-10-13T03:19:16.109Z,5.20
2022-10-13T03:20:16.078Z,5.10
2022-10-13T03:21:16.046Z,5.30
2022-10-13T03:22:16.026Z,5.40
2022-10-13T03:23:16.017Z,4.90
2022-10-13T03:24:16.007Z,5.50
2022-10-13T03:25:16.007Z,5.10
2022-10-13T03:26:15.986Z,4.80
2022-10-13T03:27:15.976Z,5.20
2022-10-13T03:28:16.035Z,5.00
2022-10-13T03:29:15.941Z,5.10
2022-10-13T03:30:15.925Z,4.90
2022-10-13T03:31:15.925Z,4.90
2022-10-13T03:32:15.934Z,5.10
2022-10-13T03:33:15.907Z,5.50
2022-10-13T03:34:15.877Z,5.00
2022-10-13T03:35:15.866Z,5.20
2022-10-13T03:36:15.853Z,5.20
2022-10-13T03:37:15.856Z,5.20
2022-10-13T03:38:15.824Z,5.30
2022-10-13T03:39:15.804Z,5.10
2022-10-13T03:40:15.803Z,5.20
2022-10-13T03:41:15.792Z,5.10
2022-10-13T03:42:15.804Z,5.00
2022-10-13T03:43:15.753Z,5.30
2022-10-13T03:44:15.782Z,4.50
2022-10-13T03:45:15.722Z,5.20
2022-10-13T03:46:15.716Z,5.70
2022-10-13T03:47:15.700Z,4.60
2022-10-13T03:48:15.722Z,5.00
2022-10-13T03:49:15.705Z,4.80
2022-10-13T03:50:15.676Z,5.00
2022-10-13T03:51:15.659Z,4.80
2022-10-13T03:52:15.664Z,5.30
2022-10-13T03:53:15.644Z,5.10
2022-10-13T03:54:15.651Z,5.70
2022-10-13T03:55:15.637Z,5.40
2022-10-13T03:56:15.622Z,5.30
2022-10-13T03:57:15.580Z,5.20
2022-10-13T03:58:15.558Z,5.00
2022-10-13T03:59:15.539Z,5.60
2022-10-13T04:00:15.549Z,4.80
2022-10-13T04:01:15.555Z,5.00
2022-10-13T04:02:15.509Z,4.80
2022-10-13T04:03:15.518Z,4.80
2022-10-13T04:04:15.498Z,5.30
2022-10-13T04:05:15.478Z,4.90
2022-10-13T04:06:15.500Z,5.30
2022-10-13T04:07:15.440Z,5.00
2022-10-13T04:08:15.437Z,5.30
2022-10-13T04:09:15.420Z,4.80
2022-10-13T04:10:15.408Z,5.00
2022-10-13T04:11:16.107Z,5.40
2022-10-13T04:12:20.471Z,4.50
2022-10-13T04:13:16.359Z,4.80
2022-10-13T04:14:15.367Z,4.20
2022-10-13T04:15:15.336Z,4.60
2022-10-13T04:16:15.342Z,4.80
2022-10-13T04:17:15.337Z,4.80
2022-10-13T04:18:15.321Z,4.80
2022-10-13T04:19:15.317Z,5.20
2022-10-13T04:20:15.276Z,4.50
2022-10-13T04:21:15.266Z,4.30
2022-10-13T04:22:15.255Z,4.60
2022-10-13T04:23:15.245Z,4.50
2022-10-13T04:24:15.238Z,4.00
2022-10-13T04:25:15.208Z,4.50
2022-10-13T04:26:15.218Z,4.20
2022-10-13T04:27:15.218Z,4.40
2022-10-13T04:28:15.223Z,4.40
2022-10-13T04:29:15.176Z,4.90
2022-10-13T04:30:15.174Z,5.00
2022-10-13T04:31:15.180Z,4.50
2022-10-13T04:32:15.125Z,4.60
2022-10-13T04:33:15.146Z,4.40
2022-10-13T04:34:15.093Z,4.60
2022-10-13T04:35:15.107Z,4.80
2022-10-13T04:36:15.091Z,4.40
2022-10-13T04:37:15.065Z,4.30
2022-10-13T04:38:15.053Z,4.20
2022-10-13T04:39:15.032Z,4.30
2022-10-13T04:40:15.029Z,4.30
2022-10-13T04:41:15.011Z,4.50
2022-10-13T04:42:15.013Z,4.40
2022-10-13T04:43:14.980Z,4.20
2022-10-13T04:44:14.971Z,4.30
2022-10-13T04:45:14.956Z,4.50
2022-10-13T04:46:14.961Z,4.50
2022-10-13T04:47:14.952Z,4.70
2022-10-13T04:48:14.920Z,4.30
2022-10-13T04:49:14.901Z,4.80
2022-10-13T04:50:14.891Z,4.50
2022-10-13T04:51:14.871Z,4.70
2022-10-13T04:52:14.881Z,4.50
2022-10-13T04:53:19.033Z,4.60
2022-10-13T04:54:14.840Z,4.70
2022-10-13T04:55:14.821Z,4.50
2022-10-13T04:56:14.812Z,4.60
2022-10-13T04:57:14.801Z,4.60
2022-10-13T04:58:14.799Z,4.60
2022-10-13T04:59:14.787Z,4.90
2022-10-13T05:00:14.791Z,4.20
2022-10-13T05:01:20.346Z,3.90
2022-10-13T05:02:15.761Z,4.30
2022-10-13T05:03:14.758Z,4.30
2022-10-13T05:04:14.711Z,4.80
2022-10-13T05:05:14.714Z,4.30
2022-10-13T05:06:14.681Z,4.30
2022-10-13T05:07:18.667Z,4.70
2022-10-13T05:08:14.659Z,4.40
2022-10-13T05:09:14.655Z,4.50
2022-10-13T05:10:14.637Z,4.50
2022-10-13T05:11:14.624Z,4.20
2022-10-13T05:12:14.598Z,4.40
2022-10-13T05:13:14.586Z,5.00
2022-10-13T05:14:14.596Z,4.00
2022-10-13T05:15:14.567Z,4.20
2022-10-13T05:16:14.547Z,4.80
2022-10-13T05:17:14.545Z,4.40
2022-10-13T05:18:14.576Z,5.00
2022-10-13T05:19:14.506Z,4.60
2022-10-13T05:20:14.574Z,4.60
2022-10-13T05:21:14.517Z,4.30
2022-10-13T05:22:14.488Z,4.10
2022-10-13T05:23:14.463Z,4.20
2022-10-13T05:24:14.452Z,4.20
2022-10-13T05:25:14.459Z,4.50
2022-10-13T05:26:14.426Z,4.80
2022-10-13T05:27:14.437Z,4.20
2022-10-13T05:28:14.475Z,4.80
2022-10-13T05:29:14.410Z,4.60
2022-10-13T05:30:14.384Z,4.20
2022-10-13T05:31:14.414Z,4.80
2022-10-13T05:32:14.352Z,4.30
2022-10-13T05:33:14.330Z,4.60
2022-10-13T05:34:14.326Z,4.90
2022-10-13T05:35:14.313Z,4.40
2022-10-13T05:36:14.304Z,4.50
2022-10-13T05:37:14.304Z,4.40
2022-10-13T05:38:14.264Z,4.40
2022-10-13T05:39:14.261Z,4.70
2022-10-13T05:40:14.262Z,4.10
2022-10-13T05:41:14.247Z,4.60
2022-10-13T05:42:14.230Z,4.70
2022-10-13T05:43:14.202Z,4.20
2022-10-13T05:44:14.234Z,4.20
2022-10-13T05:45:14.182Z,4.20
2022-10-13T05:46:14.191Z,4.10
2022-10-13T05:47:14.154Z,4.10
2022-10-13T05:48:14.151Z,4.50
2022-10-13T05:49:14.123Z,4.70
2022-10-13T05:50:14.108Z,3.90
2022-10-13T05:51:14.118Z,4.50
2022-10-13T05:52:14.110Z,4.20
2022-10-13T05:53:14.081Z,4.00
2022-10-13T05:54:14.066Z,4.40
2022-10-13T05:55:14.048Z,4.00
2022-10-13T05:56:14.038Z,4.20
2022-10-13T05:57:14.031Z,5.00
2022-10-13T05:58:14.007Z,4.50
2022-10-13T05:59:13.999Z,4.30
2022-10-13T06:00:13.986Z,4.30
2022-10-13T06:01:13.968Z,4.20
2022-10-13T06:02:13.978Z,4.40
2022-10-13T06:03:13.938Z,4.10
2022-10-13T06:04:14.008Z,4.00
2022-10-13T06:05:13.919Z,4.00
2022-10-13T06:06:13.909Z,3.80
2022-10-13T06:07:13.888Z,4.20
2022-10-13T06:08:13.907Z,4.60
2022-10-13T06:09:13.858Z,4.10
2022-10-13T06:10:13.846Z,4.30
2022-10-13T06:11:13.840Z,4.20
2022-10-13T06:12:13.836Z,4.60
2022-10-13T06:13:13.846Z,4.60
2022-10-13T06:14:13.825Z,3.70
2022-10-13T06:15:13.787Z,3.90
2022-10-13T06:16:13.766Z,4.10
2022-10-13T06:17:13.777Z,3.70
2022-10-13T06:18:13.748Z,4.30
2022-10-13T06:19:13.752Z,4.10
2022-10-13T06:20:13.717Z,3.90
2022-10-13T06:21:13.715Z,4.40
2022-10-13T06:22:13.704Z,4.20
2022-10-13T06:23:13.695Z,3.90
2022-10-13T06:24:13.724Z,4.40
2022-10-13T06:25:13.654Z,4.10
2022-10-13T06:26:13.652Z,4.30
2022-10-13T06:27:13.644Z,3.70
2022-10-13T06:28:13.691Z,4.20
2022-10-13T06:29:13.644Z,3.90
2022-10-13T06:30:13.615Z,3.40
2022-10-13T06:31:13.583Z,3.70
2022-10-13T06:32:13.564Z,3.70
2022-10-13T06:33:13.553Z,4.10
2022-10-13T06:34:13.556Z,3.50
2022-10-13T06:35:13.548Z,4.00
2022-10-13T06:36:13.522Z,3.90
2022-10-13T06:37:13.512Z,3.90
2022-10-13T06:38:13.522Z,3.80
2022-10-13T06:39:13.470Z,4.30
2022-10-13T06:40:13.462Z,4.30
2022-10-13T06:41:13.481Z,4.00
2022-10-13T06:42:13.441Z,3.80
2022-10-13T06:43:13.421Z,4.00
2022-10-13T06:44:13.420Z,3.80
2022-10-13T06:45:13.392Z,3.70
2022-10-13T06:46:13.412Z,4.20
2022-10-13T06:47:13.389Z,4.30
2022-10-13T06:48:13.359Z,4.00
2022-10-13T06:49:13.373Z,4.20
2022-10-13T06:50:13.338Z,4.20
2022-10-13T06:51:13.331Z,4.00
2022-10-13T06:52:13.330Z,4.30
2022-10-13T06:53:13.297Z,4.30
2022-10-13T06:54:13.310Z,3.70
2022-10-13T06:55:13.268Z,4.50
2022-10-13T06:56:13.266Z,3.80
2022-10-13T06:57:13.238Z,4.10
2022-10-13T06:58:13.239Z,4.00
2022-10-13T06:59:13.233Z,4.10
2022-10-13T07:00:13.207Z,4.10
2022-10-13T07:01:13.198Z,4.30
2022-10-13T07:02:13.175Z,3.80
2022-10-13T07:03:13.180Z,4.10
2022-10-13T07:04:13.180Z,3.60
2022-10-13T07:05:13.133Z,4.10
2022-10-13T07:06:13.116Z,4.20
2022-10-13T07:07:13.136Z,4.10
2022-10-13T07:08:13.106Z,3.80
2022-10-13T07:09:13.111Z,3.90
2022-10-13T07:10:13.105Z,3.90
2022-10-13T07:11:15.910Z,3.90
2022-10-13T07:12:13.056Z,4.20
2022-10-13T07:13:13.089Z,4.10
2022-10-13T07:14:13.040Z,3.90
2022-10-13T07:15:13.047Z,4.10
2022-10-13T07:16:13.005Z,4.20
2022-10-13T07:17:12.987Z,4.40
2022-10-13T07:18:12.983Z,3.90
2022-10-13T07:19:12.976Z,3.90
2022-10-13T07:20:12.985Z,4.10
2022-10-13T07:21:12.953Z,4.10
2022-10-13T07:22:12.923Z,4.30
2022-10-13T07:23:12.907Z,3.70
2022-10-13T07:24:12.921Z,4.30
2022-10-13T07:25:12.876Z,4.10
2022-10-13T07:26:12.912Z,4.30
2022-10-13T07:27:12.852Z,4.60
2022-10-13T07:28:12.862Z,4.00
2022-10-13T07:29:12.823Z,5.20
2022-10-13T07:30:12.848Z,3.90
2022-10-13T07:31:12.813Z,4.70
2022-10-13T07:32:12.801Z,4.40
2022-10-13T07:33:12.778Z,4.10
2022-10-13T07:34:12.791Z,4.50
2022-10-13T07:35:12.787Z,4.50
2022-10-13T07:36:12.744Z,4.50
2022-10-13T07:37:12.721Z,4.50
2022-10-13T07:38:12.725Z,4.50
2022-10-13T07:39:12.693Z,4.50
2022-10-13T07:40:12.690Z,4.30
2022-10-13T07:41:12.716Z,4.20
2022-10-13T07:42:12.678Z,4.40
2022-10-13T07:43:12.652Z,4.30
2022-10-13T07:44:12.640Z,4.70
2022-10-13T07:45:12.636Z,4.20
2022-10-13T07:46:13.327Z,4.40
2022-10-13T07:47:12.589Z,4.20
2022-10-13T07:48:12.610Z,4.60
2022-10-13T07:49:16.056Z,3.80
2022-10-13T07:50:12.557Z,4.10
2022-10-13T07:51:12.559Z,4.20
2022-10-13T07:52:12.562Z,4.10
2022-10-13T07:53:12.515Z,3.50
2022-10-13T07:54:12.530Z,4.50
2022-10-13T07:55:12.521Z,4.10
2022-10-13T07:56:12.508Z,4.20
2022-10-13T07:57:12.514Z,4.00
2022-10-13T07:58:12.477Z,4.10
2022-10-13T07:59:12.449Z,4.20
2022-10-13T08:00:12.456Z,4.90
2022-10-13T08:01:12.448Z,4.40
2022-10-13T08:02:12.398Z,4.00
2022-10-13T08:03:12.404Z,4.20
2022-10-13T08:04:12.411Z,4.50
2022-10-13T08:05:12.390Z,4.10
2022-10-13T08:06:12.376Z,3.90
2022-10-13T08:07:12.339Z,4.00
2022-10-13T08:08:12.358Z,4.00
2022-10-13T08:09:12.327Z,4.00
2022-10-13T08:10:12.297Z,4.10
2022-10-13T08:11:14.696Z,4.30
2022-10-13T08:12:12.303Z,4.10
2022-10-13T08:13:12.255Z,4.40
2022-10-13T08:14:12.348Z,3.90
2022-10-13T08:15:12.243Z,3.90
2022-10-13T08:16:12.216Z,3.90
2022-10-13T08:17:12.245Z,4.20
2022-10-13T08:18:12.202Z,3.90
2022-10-13T08:19:12.186Z,4.80
2022-10-13T08:20:12.183Z,4.00
2022-10-13T08:21:39.007Z,4.10
2022-10-13T08:22:13.164Z,3.70
2022-10-13T08:23:12.127Z,4.20
2022-10-13T08:24:12.126Z,4.00
2022-10-13T08:25:12.114Z,4.40
2022-10-13T08:26:12.103Z,4.20
2022-10-13T08:27:12.084Z,4.30
2022-10-13T08:28:12.103Z,4.20
2022-10-13T08:29:27.509Z,3.80
2022-10-13T08:30:13.203Z,3.80
2022-10-13T08:31:12.116Z,3.50
2022-10-13T08:32:12.006Z,4.00
2022-10-13T08:33:12.012Z,3.90
2022-10-13T08:34:11.990Z,3.80
2022-10-13T08:35:12.000Z,4.10
2022-10-13T08:36:11.961Z,4.00
2022-10-13T08:37:11.982Z,4.10
2022-10-13T08:38:11.929Z,4.30
2022-10-13T08:39:11.920Z,4.10
2022-10-13T08:40:11.914Z,3.80
2022-10-13T08:41:11.896Z,4.20
2022-10-13T08:42:11.881Z,4.40
2022-10-13T08:43:11.898Z,3.70
2022-10-13T08:44:59.270Z,4.20
2022-10-13T08:46:12.837Z,4.20
2022-10-13T08:47:11.811Z,4.30
2022-10-13T08:48:11.804Z,4.00
2022-10-13T08:49:11.797Z,3.80
2022-10-13T08:50:11.799Z,3.80
2022-10-13T08:51:11.759Z,3.80
2022-10-13T08:52:11.757Z,4.30
2022-10-13T08:53:11.739Z,3.90
2022-10-13T08:54:11.741Z,4.20
2022-10-13T08:55:11.709Z,4.00
2022-10-13T08:56:11.711Z,3.60
2022-10-13T08:57:11.687Z,4.10
2022-10-13T08:58:11.692Z,4.40
2022-10-13T08:59:11.659Z,4.00
2022-10-13T09:00:11.690Z,3.70
2022-10-13T09:01:11.648Z,4.00
2022-10-13T09:02:11.705Z,3.80
2022-10-13T09:03:11.659Z,3.40
2022-10-13T09:04:11.605Z,4.10
2022-10-13T09:05:11.580Z,3.70
2022-10-13T09:06:11.596Z,3.70
2022-10-13T09:07:11.564Z,3.90
2022-10-13T09:08:11.548Z,3.70
2022-10-13T09:09:11.538Z,4.10
2022-10-13T09:10:11.517Z,3.80
2022-10-13T09:11:11.565Z,4.10
2022-10-13T09:12:11.495Z,3.60
2022-10-13T09:13:11.484Z,3.70
2022-10-13T09:14:11.489Z,3.50
2022-10-13T09:15:11.464Z,3.60
2022-10-13T09:16:11.445Z,3.70
2022-10-13T09:17:11.476Z,3.20
2022-10-13T09:18:11.424Z,4.10
2022-10-13T09:19:11.407Z,3.90
2022-10-13T09:20:11.395Z,4.30
2022-10-13T09:21:11.416Z,3.70
2022-10-13T09:22:11.374Z,3.50
2022-10-13T09:23:11.384Z,3.60
2022-10-13T09:24:11.345Z,4.00
2022-10-13T09:25:11.354Z,3.40
2022-10-13T09:26:11.343Z,3.50
2022-10-13T09:27:11.343Z,3.40
2022-10-13T09:28:11.293Z,4.20
2022-10-13T09:29:11.414Z,3.30
2022-10-13T09:30:11.264Z,3.60
2022-10-13T09:31:13.866Z,4.10
2022-10-13T09:32:11.291Z,3.60
2022-10-13T09:33:11.232Z,3.40
2022-10-13T09:34:11.222Z,3.30
2022-10-13T09:35:11.214Z,4.00
2022-10-13T09:36:11.202Z,3.80
2022-10-13T09:37:11.183Z,4.20
2022-10-13T09:38:11.164Z,3.50
2022-10-13T09:39:11.183Z,3.80
2022-10-13T09:40:11.163Z,3.30
2022-10-13T09:41:11.160Z,3.60
2022-10-13T09:42:11.132Z,4.00
2022-10-13T09:43:11.095Z,3.80
2022-10-13T09:44:11.082Z,3.20
2022-10-13T09:45:11.089Z,3.30
2022-10-13T09:46:11.071Z,3.60
2022-10-13T09:47:11.059Z,3.30
2022-10-13T09:48:11.030Z,2.80
2022-10-13T09:49:11.011Z,3.90
2022-10-13T09:50:11.001Z,4.20
2022-10-13T09:51:11.011Z,3.80
2022-10-13T09:52:10.978Z,3.60
2022-10-13T09:53:10.980Z,3.60
2022-10-13T09:54:10.940Z,3.40
2022-10-13T09:55:10.942Z,3.50
2022-10-13T09:56:10.934Z,3.50
2022-10-13T09:57:10.920Z,3.50
2022-10-13T09:58:10.897Z,3.50
2022-10-13T09:59:10.899Z,3.30
2022-10-13T10:00:10.881Z,3.50
2022-10-13T10:01:10.908Z,3.30
2022-10-13T10:02:13.341Z,4.10
2022-10-13T10:03:11.830Z,3.60
2022-10-13T10:04:10.903Z,3.40
2022-10-13T10:05:10.791Z,3.50
2022-10-13T10:07:10.911Z,3.00
2022-10-13T10:08:10.870Z,3.80
2022-10-13T10:09:10.826Z,3.20
2022-10-13T10:10:10.813Z,3.40
2022-10-13T10:11:10.787Z,3.10
2022-10-13T10:12:10.718Z,3.40
2022-10-13T10:13:10.691Z,3.50
2022-10-13T10:14:10.678Z,3.30
2022-10-13T10:15:10.667Z,3.10
2022-10-13T10:16:10.680Z,3.60
2022-10-13T10:17:10.642Z,3.10
2022-10-13T10:18:10.655Z,3.20
2022-10-13T10:19:10.658Z,3.20
2022-10-13T10:20:10.624Z,3.20
2022-10-13T10:21:10.608Z,3.60
2022-10-13T10:22:10.572Z,3.00
2022-10-13T10:23:10.566Z,3.40
2022-10-13T10:24:10.597Z,3.70
2022-10-13T10:25:10.577Z,3.50
2022-10-13T10:26:10.535Z,3.10
2022-10-13T10:27:10.534Z,3.20
2022-10-13T10:28:10.502Z,4.10
2022-10-13T10:29:10.505Z,3.30
2022-10-13T10:30:10.465Z,3.70
2022-10-13T10:31:10.481Z,3.10
2022-10-13T10:32:10.449Z,3.30
2022-10-13T10:33:10.435Z,3.70
2022-10-13T10:34:14.844Z,3.30
2022-10-13T10:35:11.405Z,2.80
2022-10-13T10:36:10.395Z,3.60
2022-10-13T10:37:10.383Z,3.00
2022-10-13T10:38:10.365Z,3.20
2022-10-13T10:39:10.356Z,3.30
2022-10-13T10:40:10.335Z,2.90
2022-10-13T10:41:10.336Z,2.90
2022-10-13T10:42:10.306Z,3.80
2022-10-13T10:43:10.297Z,3.40
2022-10-13T10:44:10.286Z,3.30
2022-10-13T10:45:10.273Z,3.00
2022-10-13T10:46:10.284Z,2.90
2022-10-13T10:47:10.245Z,3.40
2022-10-13T10:48:10.233Z,2.70
2022-10-13T10:49:10.227Z,3.60
2022-10-13T10:50:10.223Z,2.90
2022-10-13T10:51:10.206Z,3.60
2022-10-13T10:52:10.173Z,3.00
2022-10-13T10:53:10.173Z,2.80
2022-10-13T10:54:10.154Z,3.20
2022-10-13T10:55:10.141Z,3.20
2022-10-13T10:56:10.176Z,3.10
2022-10-13T10:57:10.114Z,3.00
2022-10-13T10:58:10.133Z,3.30
2022-10-13T10:59:10.105Z,3.10
2022-10-13T11:00:10.152Z,3.00
2022-10-13T11:01:10.135Z,3.10
2022-10-13T11:02:10.066Z,3.00
2022-10-13T11:03:10.043Z,3.30
2022-10-13T11:04:10.026Z,3.00
2022-10-13T11:05:10.071Z,2.70
2022-10-13T11:06:10.011Z,3.00
2022-10-13T11:07:09.993Z,2.50
2022-10-13T11:08:09.993Z,3.00
2022-10-13T11:09:09.983Z,2.60
2022-10-13T11:10:10.077Z,3.00
2022-10-13T11:11:09.953Z,2.80
2022-10-13T11:12:09.933Z,2.90
2022-10-13T11:13:09.912Z,2.70
2022-10-13T11:14:09.902Z,3.30
2022-10-13T11:15:09.896Z,3.10
2022-10-13T11:16:09.893Z,2.90
2022-10-13T11:17:09.870Z,2.70
2022-10-13T11:18:09.852Z,3.40
2022-10-13T11:19:09.861Z,2.70
2022-10-13T11:20:09.842Z,2.90
2022-10-13T11:21:09.840Z,2.80
2022-10-13T11:22:09.833Z,3.00
2022-10-13T11:23:09.788Z,2.80
2022-10-13T11:24:09.810Z,3.30
2022-10-13T11:25:09.769Z,3.10
2022-10-13T11:26:09.751Z,2.80
2022-10-13T11:27:09.753Z,3.00
2022-10-13T11:28:09.719Z,2.80
2022-10-13T11:29:09.719Z,2.80
2022-10-13T11:30:09.690Z,3.10
2022-10-13T11:31:09.712Z,2.80
2022-10-13T11:32:09.670Z,2.60
2022-10-13T11:33:09.650Z,2.80
2022-10-13T11:34:09.660Z,2.80
2022-10-13T11:35:09.634Z,2.70
2022-10-13T11:36:09.652Z,2.80
2022-10-13T11:37:09.601Z,3.00
2022-10-13T11:38:13.906Z,2.70
2022-10-13T11:39:10.572Z,3.30
2022-10-13T11:40:09.671Z,2.60
2022-10-13T11:41:09.570Z,2.70
2022-10-13T11:42:09.539Z,2.80
2022-10-13T11:43:09.521Z,3.50
2022-10-13T11:44:09.599Z,2.70
2022-10-13T11:45:09.490Z,3.10
2022-10-13T11:46:09.508Z,3.00
2022-10-13T11:47:09.468Z,2.50
2022-10-13T11:49:09.461Z,3.00
2022-10-13T11:50:09.468Z,2.60
2022-10-13T11:51:11.335Z,2.90
2022-10-13T11:52:09.438Z,2.70
2022-10-13T11:53:09.418Z,2.70
2022-10-13T11:54:09.397Z,3.00
2022-10-13T11:55:09.366Z,2.90
2022-10-13T11:56:09.369Z,2.90
2022-10-13T11:57:09.349Z,2.80
2022-10-13T11:58:09.353Z,2.80
2022-10-13T11:59:09.320Z,2.60
2022-10-13T12:00:09.311Z,2.50
2022-10-13T12:01:09.317Z,3.00
2022-10-13T12:02:09.286Z,2.40
2022-10-13T12:03:09.350Z,2.70
2022-10-13T12:04:09.269Z,3.00
2022-10-13T12:05:09.236Z,2.70
2022-10-13T12:06:09.247Z,3.00
2022-10-13T12:07:09.217Z,2.60
2022-10-13T12:08:09.218Z,2.90
2022-10-13T12:09:09.237Z,2.50
2022-10-13T12:10:09.179Z,2.70
2022-10-13T12:11:09.207Z,3.00
2022-10-13T12:12:09.155Z,2.80
2022-10-13T12:13:09.136Z,2.70
2022-10-13T12:14:09.138Z,2.20
2022-10-13T12:15:09.112Z,2.70
2022-10-13T12:16:09.107Z,2.70
2022-10-13T12:17:12.253Z,2.60
2022-10-13T12:18:10.106Z,2.40
2022-10-13T12:19:09.064Z,2.70
2022-10-13T12:20:09.047Z,2.40
2022-10-13T12:21:09.067Z,2.40
2022-10-13T12:22:09.026Z,2.70
2022-10-13T12:23:09.007Z,2.50
2022-10-13T12:24:09.008Z,2.70
2022-10-13T12:25:08.997Z,2.70
2022-10-13T12:26:08.985Z,2.20
2022-10-13T12:27:08.970Z,2.30
2022-10-13T12:28:08.956Z,2.40
2022-10-13T12:29:08.935Z,2.70
2022-10-13T12:30:08.915Z,2.50
2022-10-13T12:31:08.918Z,2.70
2022-10-13T12:32:08.909Z,2.50
2022-10-13T12:33:08.916Z,2.70
2022-10-13T12:34:08.896Z,2.60
2022-10-13T12:35:08.904Z,2.40
2022-10-13T12:36:08.836Z,2.70
2022-10-13T12:37:08.857Z,2.90
2022-10-13T12:38:08.816Z,2.60
2022-10-13T12:39:08.808Z,2.80
2022-10-13T12:40:08.786Z,2.70
2022-10-13T12:41:08.774Z,2.90
2022-10-13T12:42:08.775Z,2.70
2022-10-13T12:43:08.785Z,2.50
2022-10-13T12:44:08.735Z,3.10
2022-10-13T12:45:08.734Z,3.40
2022-10-13T12:46:08.805Z,2.70
2022-10-13T12:47:08.707Z,2.70
2022-10-13T12:48:08.686Z,3.00
2022-10-13T12:49:08.760Z,3.30
2022-10-13T12:50:08.654Z,3.10
2022-10-13T12:51:08.651Z,3.00
2022-10-13T12:52:08.678Z,3.30
2022-10-13T12:53:08.613Z,3.30
2022-10-13T12:54:08.615Z,3.20
2022-10-13T12:55:08.595Z,3.00
2022-10-13T12:56:08.589Z,3.00
2022-10-13T12:57:08.583Z,3.00
2022-10-13T12:58:08.547Z,3.70
2022-10-13T12:59:08.565Z,3.00
2022-10-13T13:00:08.585Z,3.50
2022-10-13T13:01:08.628Z,3.80
2022-10-13T13:02:08.513Z,3.50
2022-10-13T13:03:08.512Z,3.50
2022-10-13T13:04:08.490Z,3.30
2022-10-13T13:05:08.472Z,3.60
2022-10-13T13:06:08.498Z,3.80
2022-10-13T13:07:08.470Z,4.00
2022-10-13T13:08:08.431Z,4.20
2022-10-13T13:09:08.442Z,3.60
2022-10-13T13:10:08.426Z,4.00
2022-10-13T13:11:08.404Z,3.80
2022-10-13T13:12:08.452Z,3.80
2022-10-13T13:13:08.387Z,4.50
2022-10-13T13:14:08.342Z,4.00
2022-10-13T13:15:08.334Z,3.90
2022-10-13T13:16:08.313Z,3.80
2022-10-13T13:17:08.320Z,4.00
2022-10-13T13:18:08.342Z,4.70
2022-10-13T13:19:08.301Z,4.20
2022-10-13T13:20:08.283Z,4.30
2022-10-13T13:21:08.262Z,4.10